createdAt,value
2018-01-01T00:02:17.540Z,40.53
2018-01-01T00:04:45.061Z,39.07
2018-01-01T00:07:12.494Z,28.03
2018-01-01T00:09:39.912Z,21.13
2018-01-01T00:12:07.331Z,20.40
2018-01-01T00:14:34.825Z,24.77
2018-01-01T00:17:03.020Z,47.87
2018-01-01T00:19:30.442Z,35.17
2018-01-01T00:21:57.857Z,18.90
2018-01-01T00:24:25.344Z,46.23
2018-01-01T00:26:52.768Z,24.60
2018-01-01T00:29:20.969Z,21.00
2018-01-01T00:31:48.441Z,17.30
2018-01-01T00:34:15.857Z,21.30
2018-01-01T00:36:43.318Z,34.53
2018-01-01T00:39:10.853Z,29.57
2018-01-01T00:41:38.309Z,62.67
2018-01-01T00:44:05.786Z,24.57
2018-01-01T00:46:33.230Z,31.17
2018-01-01T00:49:01.442Z,32.07
2018-01-01T00:51:28.869Z,31.20
2018-01-01T00:53:56.290Z,26.53
2018-01-01T00:56:23.701Z,34.63
2018-01-01T00:58:51.125Z,27.20
2018-01-01T01:01:18.534Z,26.70
2018-01-01T01:03:46.042Z,31.97
2018-01-01T01:06:13.461Z,33.63
2018-01-01T01:08:41.002Z,30.80
2018-01-01T01:11:08.416Z,31.53
2018-01-01T01:13:35.850Z,31.27
2018-01-01T01:16:03.269Z,26.87
2018-01-01T01:18:31.499Z,25.83
2018-01-01T01:20:58.922Z,25.43
2018-01-01T01:23:27.104Z,27.57
2018-01-01T01:25:55.305Z,22.27
2018-01-01T01:28:23.481Z,21.93
2018-01-01T01:30:51.762Z,21.20
2018-01-01T01:33:19.176Z,17.80
2018-01-01T01:35:46.617Z,18.67
2018-01-01T01:38:14.794Z,22.57
2018-01-01T01:40:42.978Z,21.30
2018-01-01T01:43:11.240Z,20.70
2018-01-01T01:45:38.662Z,20.63
2018-01-01T01:48:06.127Z,18.80
2018-01-01T01:50:34.280Z,13.77
2018-01-01T01:53:02.454Z,16.33
2018-01-01T01:55:29.988Z,12.53
2018-01-01T01:57:57.433Z,17.50
2018-01-01T02:00:24.845Z,11.07
2018-01-01T02:02:52.283Z,12.13
2018-01-01T02:05:20.105Z,11.87
2018-01-01T02:07:47.506Z,19.37
2018-01-01T02:10:15.024Z,16.23
2018-01-01T02:12:42.446Z,12.97
2018-01-01T02:15:09.881Z,15.80
2018-01-01T02:17:37.286Z,17.80
2018-01-01T02:20:04.705Z,20.03
2018-01-01T02:22:32.134Z,23.37
2018-01-01T02:24:59.613Z,25.50
2018-01-01T02:27:26.996Z,33.80
2018-01-01T02:29:54.433Z,33.73
2018-01-01T02:32:32.789Z,26.30
2018-01-01T02:35:00.229Z,26.87
2018-01-01T02:37:27.644Z,28.60
2018-01-01T02:39:55.069Z,30.97
2018-01-01T02:42:22.505Z,37.63
2018-01-01T02:44:50.701Z,38.33
2018-01-01T02:47:18.878Z,36.47
2018-01-01T02:49:47.085Z,35.87
2018-01-01T02:52:14.558Z,42.60
2018-01-01T02:54:41.974Z,32.87
2018-01-01T02:57:09.501Z,24.77
2018-01-01T02:59:36.908Z,25.90
2018-01-01T03:02:04.344Z,23.97
2018-01-01T03:04:31.818Z,26.07
2018-01-01T03:06:59.280Z,25.83
2018-01-01T03:09:26.707Z,20.03
2018-01-01T03:11:54.882Z,21.73
2018-01-01T03:14:22.291Z,22.90
2018-01-01T03:16:49.708Z,27.97
2018-01-01T03:19:17.114Z,21.07
2018-01-01T03:21:44.537Z,21.90
2018-01-01T03:24:11.966Z,22.67
2018-01-01T03:26:39.365Z,21.77
2018-01-01T03:29:06.768Z,19.70
2018-01-01T03:31:34.979Z,22.53
2018-01-01T03:34:02.409Z,22.23
2018-01-01T03:36:29.816Z,21.20
2018-01-01T03:38:57.228Z,18.03
2018-01-01T03:41:24.634Z,22.87
2018-01-01T03:43:52.828Z,18.90
2018-01-01T03:46:20.254Z,17.53
2018-01-01T03:48:47.678Z,15.93
2018-01-01T03:51:15.070Z,20.67
2018-01-01T03:53:42.481Z,16.17
2018-01-01T03:56:10.685Z,17.13
2018-01-01T03:58:38.090Z,12.93
2018-01-01T04:01:05.497Z,21.83
2018-01-01T04:03:33.719Z,15.40
2018-01-01T04:06:01.874Z,16.60
2018-01-01T04:08:30.077Z,12.40
2018-01-01T04:10:57.485Z,15.20
2018-01-01T04:13:24.927Z,22.83
2018-01-01T04:15:52.323Z,12.07
2018-01-01T04:18:19.738Z,13.83
2018-01-01T04:20:47.941Z,13.80
2018-01-01T04:23:16.119Z,15.67
2018-01-01T04:25:43.597Z,9.03
2018-01-01T04:28:11.015Z,11.97
2018-01-01T04:30:38.422Z,8.70
2018-01-01T04:33:06.594Z,11.63
2018-01-01T04:35:34.811Z,13.83
2018-01-01T04:38:02.281Z,12.17
2018-01-01T04:40:29.700Z,6.20
2018-01-01T04:42:57.117Z,11.53
2018-01-01T04:45:24.553Z,8.23
2018-01-01T04:47:52.723Z,12.10
2018-01-01T04:50:20.136Z,11.57
2018-01-01T04:52:47.560Z,10.03
2018-01-01T04:55:14.976Z,7.47
2018-01-01T04:57:42.443Z,12.83
2018-01-01T05:00:09.854Z,12.83
2018-01-01T05:02:37.368Z,9.30
2018-01-01T05:05:04.848Z,9.00
2018-01-01T05:07:33.025Z,10.73
2018-01-01T05:10:00.431Z,6.07
2018-01-01T05:12:27.841Z,11.90
2018-01-01T05:14:56.012Z,9.13
2018-01-01T05:17:23.532Z,12.30
2018-01-01T05:19:50.929Z,8.43
2018-01-01T05:22:18.338Z,9.63
2018-01-01T05:24:46.525Z,5.93
2018-01-01T05:27:13.934Z,6.50
2018-01-01T05:29:41.337Z,8.37
2018-01-01T05:32:09.514Z,5.63
2018-01-01T05:34:36.925Z,5.50
2018-01-01T05:37:04.368Z,7.77
2018-01-01T05:39:31.803Z,7.97
2018-01-01T05:41:59.223Z,8.90
2018-01-01T05:44:27.398Z,6.57
2018-01-01T05:46:55.571Z,5.73
2018-01-01T05:49:22.985Z,11.40
2018-01-01T05:51:50.457Z,6.13
2018-01-01T05:54:17.857Z,6.47
2018-01-01T05:56:45.279Z,6.43
2018-01-01T05:59:12.680Z,7.33
2018-01-01T06:01:40.117Z,7.30
2018-01-01T06:04:07.529Z,3.67
2018-01-01T06:06:34.969Z,7.53
2018-01-01T06:09:02.418Z,4.00
2018-01-01T06:11:29.838Z,9.57
2018-01-01T06:13:57.237Z,5.50
2018-01-01T06:16:25.437Z,5.97
2018-01-01T06:18:52.850Z,2.63
2018-01-01T06:21:20.377Z,6.10
2018-01-01T06:23:47.791Z,6.40
2018-01-01T06:26:15.201Z,5.47
2018-01-01T06:28:42.681Z,8.70
2018-01-01T06:31:10.156Z,6.80
2018-01-01T06:33:37.619Z,6.30
2018-01-01T06:36:05.120Z,4.20
2018-01-01T06:38:32.552Z,4.40
2018-01-01T06:41:00.026Z,5.63
2018-01-01T06:43:27.442Z,4.67
2018-01-01T06:45:54.857Z,3.43
2018-01-01T06:48:22.270Z,5.10
2018-01-01T06:50:49.677Z,5.43
2018-01-01T06:53:17.896Z,9.53
2018-01-01T06:55:45.303Z,7.80
2018-01-01T06:58:12.709Z,5.20
2018-01-01T07:00:40.117Z,5.60
2018-01-01T07:03:07.539Z,4.90
2018-01-01T07:05:34.965Z,8.40
2018-01-01T07:10:35.261Z,8.77
2018-01-01T07:13:03.437Z,10.10
2018-01-01T07:15:31.000Z,6.33
2018-01-01T07:17:58.394Z,5.17
2018-01-01T07:20:26.571Z,10.87
2018-01-01T07:22:54.745Z,4.90
2018-01-01T07:25:22.922Z,10.60
2018-01-01T07:27:50.334Z,5.13
2018-01-01T07:30:17.741Z,5.00
2018-01-01T07:32:45.157Z,4.83
2018-01-01T07:35:12.573Z,4.53
2018-01-01T07:37:39.982Z,6.70
2018-01-01T07:40:08.151Z,6.47
2018-01-01T07:42:35.578Z,5.73
2018-01-01T07:45:02.981Z,6.53
2018-01-01T07:47:30.402Z,10.03
2018-01-01T07:49:57.872Z,3.93
2018-01-01T07:52:25.313Z,6.50
2018-01-01T07:54:53.479Z,4.17
2018-01-01T07:57:20.887Z,5.27
2018-01-01T07:59:48.360Z,6.27
2018-01-01T08:02:15.763Z,4.23
2018-01-01T08:04:43.189Z,6.93
2018-01-01T08:07:10.592Z,5.73
2018-01-01T08:09:37.989Z,5.00
2018-01-01T08:12:06.170Z,3.93
2018-01-01T08:14:33.578Z,6.37
2018-01-01T08:17:00.979Z,4.73
2018-01-01T08:19:28.377Z,4.53
2018-01-01T08:21:56.545Z,8.93
2018-01-01T08:24:23.964Z,6.30
2018-01-01T08:26:52.137Z,5.70
2018-01-01T08:29:19.547Z,9.60
2018-01-01T08:31:46.985Z,9.77
2018-01-01T08:34:14.442Z,7.00
2018-01-01T08:36:42.631Z,7.10
2018-01-01T08:39:10.076Z,4.50
2018-01-01T08:41:37.470Z,12.53
2018-01-01T08:44:04.882Z,6.43
2018-01-01T08:46:32.314Z,1.33
2018-01-01T08:49:00.390Z,3.13
2018-01-01T08:51:27.906Z,2.83
2018-01-01T08:53:55.677Z,2.13
2018-01-01T08:56:23.084Z,5.80
2018-01-01T08:58:51.269Z,2.17
2018-01-01T09:01:19.481Z,2.80
2018-01-01T09:03:46.909Z,1.10
2018-01-01T09:06:14.372Z,3.87
2018-01-01T09:08:41.781Z,2.37
2018-01-01T09:11:09.363Z,2.20
2018-01-01T09:13:36.835Z,2.47
2018-01-01T09:16:04.298Z,2.33
2018-01-01T09:18:31.828Z,1.77
2018-01-01T09:20:59.225Z,3.33
2018-01-01T09:23:27.397Z,1.90
2018-01-01T09:25:55.565Z,5.27
2018-01-01T09:28:23.079Z,3.03
2018-01-01T09:30:50.482Z,3.20
2018-01-01T09:33:17.920Z,6.20
2018-01-01T09:35:45.387Z,3.43
2018-01-01T09:38:12.928Z,6.90
2018-01-01T09:40:40.477Z,5.13
2018-01-01T09:43:07.973Z,4.67
2018-01-01T09:45:36.148Z,5.40
2018-01-01T09:48:04.315Z,5.10
2018-01-01T09:50:31.726Z,5.43
2018-01-01T09:52:59.128Z,6.43
2018-01-01T09:55:26.589Z,5.07
2018-01-01T09:57:54.011Z,2.60
2018-01-01T10:00:22.177Z,6.47
2018-01-01T10:02:49.702Z,6.20
2018-01-01T10:05:17.090Z,6.30
2018-01-01T10:07:44.541Z,6.43
2018-01-01T10:10:12.036Z,5.40
2018-01-01T10:12:39.453Z,6.97
2018-01-01T10:15:07.721Z,3.13
2018-01-01T10:17:35.115Z,7.90
2018-01-01T10:20:02.594Z,7.60
2018-01-01T10:22:30.058Z,6.30
2018-01-01T10:24:57.469Z,8.40
2018-01-01T10:27:24.865Z,5.00
2018-01-01T10:29:53.033Z,5.90
2018-01-01T10:32:20.504Z,8.53
2018-01-01T10:34:47.926Z,7.33
2018-01-01T10:37:15.334Z,8.97
2018-01-01T10:39:42.789Z,4.10
2018-01-01T10:42:10.206Z,8.47
2018-01-01T10:44:37.726Z,6.63
2018-01-01T10:47:05.129Z,6.40
2018-01-01T10:49:33.341Z,6.70
2018-01-01T10:52:01.385Z,6.30
2018-01-01T10:54:28.793Z,13.83
2018-01-01T10:56:56.297Z,6.40
2018-01-01T10:59:23.710Z,10.97
2018-01-01T11:01:52.055Z,11.27
2018-01-01T11:04:19.497Z,11.00
2018-01-01T11:06:46.922Z,11.73
2018-01-01T11:09:14.435Z,10.93
2018-01-01T11:11:42.585Z,13.77
2018-01-01T11:14:10.830Z,7.07
2018-01-01T11:16:38.322Z,11.97
2018-01-01T11:19:06.460Z,6.53
2018-01-01T11:21:34.758Z,14.03
2018-01-01T11:24:02.198Z,11.20
2018-01-01T11:26:30.369Z,7.33
2018-01-01T11:28:58.586Z,6.83
2018-01-01T11:31:25.995Z,9.33
2018-01-01T11:33:53.410Z,8.23
2018-01-01T11:36:20.917Z,7.60
2018-01-01T11:38:48.323Z,12.30
2018-01-01T11:41:15.859Z,11.80
2018-01-01T11:43:43.330Z,5.07
2018-01-01T11:46:10.995Z,7.43
2018-01-01T11:48:38.451Z,5.47
2018-01-01T11:51:05.897Z,5.17
2018-01-01T11:53:34.262Z,5.57
2018-01-01T11:56:01.710Z,10.00
2018-01-01T11:58:29.126Z,7.53
2018-01-01T12:00:57.309Z,4.30
2018-01-01T12:03:24.723Z,9.37
2018-01-01T12:05:52.178Z,12.50
2018-01-01T12:08:19.593Z,5.80
2018-01-01T12:10:47.101Z,5.80
2018-01-01T12:13:14.780Z,6.90
2018-01-01T12:15:42.191Z,5.33
2018-01-01T12:18:10.298Z,8.60
2018-01-01T12:20:38.477Z,13.13
2018-01-01T12:23:05.955Z,4.60
2018-01-01T12:25:34.953Z,6.40
2018-01-01T12:28:02.373Z,6.97
2018-01-01T12:30:29.811Z,7.20
2018-01-01T12:32:57.217Z,7.93
2018-01-01T12:35:24.638Z,6.13
2018-01-01T12:37:52.784Z,5.43
2018-01-01T12:40:20.273Z,4.37
2018-01-01T12:42:48.514Z,9.70
2018-01-01T12:45:16.021Z,4.30
2018-01-01T12:47:44.088Z,3.53
2018-01-01T12:50:11.513Z,9.03
2018-01-01T12:52:38.977Z,6.47
2018-01-01T12:55:06.437Z,5.23
2018-01-01T12:57:33.947Z,5.53
2018-01-01T13:00:01.338Z,2.20
2018-01-01T13:02:28.759Z,3.00
2018-01-01T13:04:56.235Z,3.43
2018-01-01T13:07:23.670Z,3.97
2018-01-01T13:09:51.100Z,2.73
2018-01-01T13:12:18.527Z,3.20
2018-01-01T13:14:45.946Z,5.83
2018-01-01T13:17:13.349Z,2.97
2018-01-01T13:19:40.778Z,2.90
2018-01-01T13:22:08.197Z,4.87
2018-01-01T13:24:35.615Z,4.73
2018-01-01T13:27:03.022Z,5.70
2018-01-01T13:29:30.506Z,7.23
2018-01-01T13:31:57.974Z,4.90
2018-01-01T13:34:25.415Z,11.30
2018-01-01T13:36:52.833Z,4.27
2018-01-01T13:39:20.269Z,6.67
2018-01-01T13:41:47.653Z,5.93
2018-01-01T13:44:15.097Z,3.13
2018-01-01T13:46:42.481Z,5.23
2018-01-01T13:49:09.962Z,5.93
2018-01-01T13:51:37.367Z,4.63
2018-01-01T13:54:04.810Z,4.53
2018-01-01T13:56:32.230Z,9.07
2018-01-01T13:59:00.435Z,4.63
2018-01-01T14:01:27.915Z,6.00
2018-01-01T14:03:56.089Z,4.70
2018-01-01T14:06:23.558Z,4.50
2018-01-01T14:08:51.723Z,11.57
2018-01-01T14:11:19.921Z,10.90
2018-01-01T14:13:48.110Z,9.77
2018-01-01T14:16:16.316Z,10.00
2018-01-01T14:18:43.747Z,3.97
2018-01-01T14:21:11.145Z,6.63
2018-01-01T14:23:38.586Z,12.90
2018-01-01T14:26:05.992Z,5.67
2018-01-01T14:28:33.394Z,6.77
2018-01-01T14:31:00.867Z,2.17
2018-01-01T14:33:28.225Z,6.80
2018-01-01T14:35:55.633Z,7.77
2018-01-01T14:38:23.849Z,8.37
2018-01-01T14:40:51.300Z,4.73
2018-01-01T14:43:18.754Z,4.97
2018-01-01T14:45:46.358Z,6.37
2018-01-01T14:48:13.846Z,4.20
2018-01-01T14:50:41.425Z,7.70
2018-01-01T14:53:08.835Z,8.07
2018-01-01T14:55:37.014Z,7.20
2018-01-01T14:58:05.260Z,7.43
2018-01-01T15:00:32.709Z,8.90
2018-01-01T15:03:00.124Z,9.10
2018-01-01T15:05:27.524Z,5.07
2018-01-01T15:07:54.934Z,5.47
2018-01-01T15:10:22.334Z,6.37
2018-01-01T15:12:49.760Z,8.37
2018-01-01T15:15:17.157Z,9.63
2018-01-01T15:17:46.078Z,12.07
2018-01-01T15:20:14.376Z,10.60
2018-01-01T15:22:42.594Z,13.10
2018-01-01T15:25:10.015Z,17.47
2018-01-01T15:27:37.541Z,14.37
2018-01-01T15:30:04.927Z,9.93
2018-01-01T15:32:32.317Z,5.87
2018-01-01T15:34:59.840Z,8.83
2018-01-01T15:37:27.254Z,11.63
2018-01-01T15:39:54.768Z,8.73
2018-01-01T15:42:22.333Z,11.00
2018-01-01T15:44:49.737Z,13.43
2018-01-01T15:47:17.151Z,7.87
2018-01-01T15:49:45.365Z,18.00
2018-01-01T15:52:12.803Z,7.27
2018-01-01T15:54:41.053Z,12.67
2018-01-01T15:57:08.688Z,10.70
2018-01-01T15:59:36.187Z,16.77
2018-01-01T16:02:03.624Z,8.40
2018-01-01T16:04:31.042Z,12.00
2018-01-01T16:06:58.447Z,7.33
2018-01-01T16:09:25.863Z,11.80
2018-01-01T16:11:53.304Z,9.93
2018-01-01T16:14:20.973Z,8.30
2018-01-01T16:16:49.146Z,10.37
2018-01-01T16:19:17.307Z,9.97
2018-01-01T16:21:44.727Z,8.90
2018-01-01T16:24:12.168Z,8.43
2018-01-01T16:26:39.582Z,13.83
2018-01-01T16:29:06.995Z,7.70
2018-01-01T16:31:34.398Z,14.23
2018-01-01T16:34:01.807Z,13.50
2018-01-01T16:36:29.213Z,14.93
2018-01-01T16:38:56.652Z,11.57
2018-01-01T16:41:24.827Z,9.93
2018-01-01T16:43:52.250Z,11.57
2018-01-01T16:46:19.661Z,10.60
2018-01-01T16:48:47.180Z,8.33
2018-01-01T16:51:14.594Z,11.27
2018-01-01T16:53:42.016Z,8.60
2018-01-01T16:56:09.476Z,7.73
2018-01-01T16:58:36.889Z,13.17
2018-01-01T17:01:04.338Z,12.77
2018-01-01T17:03:31.743Z,11.17
2018-01-01T17:05:59.150Z,8.27
2018-01-01T17:08:26.616Z,15.43
2018-01-01T17:10:54.073Z,12.67
2018-01-01T17:13:21.497Z,14.53
2018-01-01T17:15:48.905Z,12.50
2018-01-01T17:18:17.110Z,18.43
2018-01-01T17:20:44.535Z,16.17
2018-01-01T17:23:12.056Z,13.50
2018-01-01T17:25:39.473Z,23.40
2018-01-01T17:28:06.881Z,24.70
2018-01-01T17:30:34.302Z,26.63
2018-01-01T17:33:01.710Z,11.13
2018-01-01T17:35:29.168Z,12.50
2018-01-01T17:37:56.553Z,9.50
2018-01-01T17:40:23.969Z,15.17
2018-01-01T17:42:51.373Z,12.47
2018-01-01T17:45:18.780Z,10.60
2018-01-01T17:47:46.249Z,7.93
2018-01-01T17:50:13.674Z,10.60
2018-01-01T17:52:41.846Z,13.67
2018-01-01T17:55:10.027Z,10.47
2018-01-01T17:57:37.429Z,7.53
2018-01-01T18:00:04.839Z,8.93
2018-01-01T18:02:32.238Z,7.57
2018-01-01T18:04:59.644Z,9.40
2018-01-01T18:07:27.504Z,6.17
2018-01-01T18:09:55.659Z,15.30
2018-01-01T18:12:23.830Z,13.20
2018-01-01T18:14:51.261Z,27.03
2018-01-01T18:17:18.676Z,19.47
2018-01-01T18:19:46.089Z,8.87
2018-01-01T18:22:13.507Z,7.00
2018-01-01T18:24:40.941Z,11.60
2018-01-01T18:27:08.346Z,11.17
2018-01-01T18:29:35.762Z,11.07
2018-01-01T18:32:03.161Z,8.60
2018-01-01T18:34:30.596Z,11.07
2018-01-01T18:36:58.018Z,8.27
2018-01-01T18:39:25.428Z,11.73
2018-01-01T18:41:52.889Z,14.33
2018-01-01T18:44:20.372Z,10.63
2018-01-01T18:46:47.778Z,9.73
2018-01-01T18:49:15.189Z,12.07
2018-01-01T18:51:42.686Z,8.80
2018-01-01T18:54:10.098Z,13.13
2018-01-01T18:56:37.517Z,12.20
2018-01-01T18:59:04.949Z,10.80
2018-01-01T19:01:32.361Z,14.20
2018-01-01T19:03:59.765Z,11.20
2018-01-01T19:06:27.177Z,15.53
2018-01-01T19:08:55.355Z,10.50
2018-01-01T19:11:23.570Z,18.83
2018-01-01T19:13:50.985Z,13.43
2018-01-01T19:16:18.398Z,13.00
2018-01-01T19:18:45.819Z,10.93
2018-01-01T19:21:13.220Z,8.60
2018-01-01T19:23:41.429Z,14.60
2018-01-01T19:26:08.838Z,5.43
2018-01-01T19:28:36.259Z,8.20
2018-01-01T19:31:03.737Z,12.70
2018-01-01T19:33:31.307Z,11.93
2018-01-01T19:35:59.461Z,8.87
2018-01-01T19:38:27.686Z,13.60
2018-01-01T19:40:55.099Z,15.13
2018-01-01T19:43:22.509Z,15.80
2018-01-01T19:45:49.918Z,12.20
2018-01-01T19:48:17.343Z,18.13
2018-01-01T19:50:44.825Z,10.00
2018-01-01T19:53:12.241Z,14.00
2018-01-01T19:55:41.160Z,15.67
2018-01-01T19:58:09.335Z,16.20
2018-01-01T20:00:36.837Z,11.53
2018-01-01T20:03:04.249Z,10.63
2018-01-01T20:05:31.662Z,12.73
2018-01-01T20:07:59.824Z,12.17
2018-01-01T20:10:27.234Z,12.07
2018-01-01T20:12:54.657Z,18.63
2018-01-01T20:15:22.165Z,13.70
2018-01-01T20:17:49.769Z,14.30
2018-01-01T20:20:17.178Z,10.87
2018-01-01T20:22:45.361Z,19.93
2018-01-01T20:25:12.771Z,13.67
2018-01-01T20:27:40.213Z,13.73
2018-01-01T20:30:07.595Z,9.50
2018-01-01T20:32:35.013Z,10.00
2018-01-01T20:35:02.431Z,8.07
2018-01-01T20:37:29.836Z,9.20
2018-01-01T20:39:57.247Z,6.13
2018-01-01T20:42:25.452Z,15.93
2018-01-01T20:44:52.849Z,9.13
2018-01-01T20:47:20.248Z,10.80
2018-01-01T20:49:47.653Z,12.77
2018-01-01T20:52:15.086Z,8.70
2018-01-01T20:54:42.595Z,6.23
2018-01-01T20:57:10.027Z,13.87
2018-01-01T20:59:37.438Z,9.67
2018-01-01T21:02:04.909Z,9.53
2018-01-01T21:04:32.307Z,13.07
2018-01-01T21:06:59.709Z,9.53
2018-01-01T21:09:27.974Z,6.57
2018-01-01T21:11:55.378Z,13.53
2018-01-01T21:14:23.560Z,7.33
2018-01-01T21:16:51.749Z,9.40
2018-01-01T21:19:19.966Z,9.90
2018-01-01T21:21:47.425Z,7.93
2018-01-01T21:24:14.901Z,10.10
2018-01-01T21:26:43.051Z,14.90
2018-01-01T21:29:11.261Z,6.00
2018-01-01T21:31:38.767Z,10.53
2018-01-01T21:34:06.169Z,9.90
2018-01-01T21:36:34.361Z,16.57
2018-01-01T21:39:02.533Z,16.70
2018-01-01T21:41:29.985Z,11.77
2018-01-01T21:43:57.395Z,11.37
2018-01-01T21:46:24.881Z,9.83
2018-01-01T21:48:52.349Z,12.73
2018-01-01T21:51:19.745Z,13.17
2018-01-01T21:53:47.212Z,16.80
2018-01-01T21:56:14.649Z,10.27
2018-01-01T21:58:42.073Z,7.83
2018-01-01T22:01:09.485Z,10.53
2018-01-01T22:03:36.885Z,9.43
2018-01-01T22:06:04.332Z,9.87
2018-01-01T22:08:31.737Z,22.37
2018-01-01T22:10:59.981Z,13.90
2018-01-01T22:13:27.447Z,13.13
2018-01-01T22:15:54.913Z,12.83
2018-01-01T22:18:22.426Z,13.97
2018-01-01T22:20:49.870Z,10.67
2018-01-01T22:23:17.279Z,10.67
2018-01-01T22:25:45.479Z,13.53
2018-01-01T22:28:13.001Z,10.57
2018-01-01T22:30:40.485Z,23.77
2018-01-01T22:33:07.893Z,13.53
2018-01-01T22:35:35.399Z,11.37
2018-01-01T22:38:02.834Z,10.17
2018-01-01T22:40:31.006Z,13.07
2018-01-01T22:42:58.432Z,16.30
2018-01-01T22:45:25.861Z,10.50
2018-01-01T22:47:53.281Z,14.03
2018-01-01T22:50:20.689Z,12.60
2018-01-01T22:52:48.858Z,9.07
2018-01-01T22:55:16.273Z,14.07
2018-01-01T22:57:43.683Z,8.77
2018-01-01T23:00:11.209Z,9.90
2018-01-01T23:02:38.666Z,15.73
2018-01-01T23:05:06.073Z,7.57
2018-01-01T23:07:34.258Z,12.43
2018-01-01T23:10:01.674Z,9.83
2018-01-01T23:12:29.845Z,19.10
2018-01-01T23:14:58.013Z,8.93
2018-01-01T23:17:25.537Z,6.77
2018-01-01T23:19:52.946Z,10.97
2018-01-01T23:22:20.355Z,8.37
2018-01-01T23:24:48.520Z,19.87
2018-01-01T23:27:16.723Z,12.87
2018-01-01T23:29:44.941Z,12.07
2018-01-01T23:32:12.429Z,10.37
2018-01-01T23:34:39.869Z,11.03
2018-01-01T23:37:07.280Z,9.83
2018-01-01T23:39:34.688Z,12.23
2018-01-01T23:42:02.161Z,12.33
2018-01-01T23:44:29.573Z,11.47
2018-01-01T23:46:56.993Z,9.73
2018-01-01T23:49:25.169Z,10.20
2018-01-01T23:51:53.342Z,10.53
2018-01-01T23:54:22.440Z,12.97
2018-01-01T23:56:49.869Z,12.83
2018-01-01T23:59:17.321Z,11.17
